createdAt,value
2019-06-10T00:00:50.809Z,0
2019-06-10T00:01:51.402Z,0
2019-06-10T00:02:52.343Z,0
2019-06-10T00:03:53.711Z,0
2019-06-10T00:04:55.549Z,0
2019-06-10T00:05:57.631Z,0
2019-06-10T00:06:57.817Z,0
2019-06-10T00:08:01.147Z,0
2019-06-10T00:09:03.132Z,0
2019-06-10T00:10:03.815Z,0
2019-06-10T00:11:04.986Z,0
2019-06-10T00:12:05.739Z,0
2019-06-10T00:13:06.942Z,0
2019-06-10T00:14:07.420Z,0
2019-06-10T00:15:10.691Z,0
2019-06-10T00:16:11.484Z,0
2019-06-10T00:17:11.216Z,0
2019-06-10T00:18:34.186Z,0
2019-06-10T00:19:13.818Z,0
2019-06-10T00:20:15.189Z,0
2019-06-10T00:21:16.565Z,0
2019-06-10T00:22:17.934Z,0
2019-06-10T00:23:21.020Z,0
2019-06-10T00:24:21.103Z,0
2019-06-10T00:25:21.980Z,0
2019-06-10T00:26:23.351Z,0
2019-06-10T00:27:24.720Z,0
2019-06-10T00:28:26.091Z,0
2019-06-10T00:29:27.462Z,0
2019-06-10T00:30:31.186Z,0
2019-06-10T00:31:31.254Z,0
2019-06-10T00:32:31.981Z,0
2019-06-10T00:33:32.838Z,0
2019-06-10T00:34:35.119Z,0
2019-06-10T00:35:35.545Z,0
2019-06-10T00:36:36.916Z,0
2019-06-10T00:37:38.285Z,0
2019-06-10T00:38:41.207Z,0
2019-06-10T00:39:41.001Z,0
2019-06-10T00:40:42.363Z,0
2019-06-10T00:41:43.734Z,0
2019-06-10T00:42:45.103Z,0
2019-06-10T00:43:46.472Z,0
2019-06-10T00:44:47.846Z,0
2019-06-10T00:45:51.162Z,0
2019-06-10T00:46:51.657Z,0
2019-06-10T00:48:06.667Z,0
2019-06-10T00:48:53.228Z,0
2019-06-10T00:49:54.601Z,0
2019-06-10T00:50:55.973Z,0
2019-06-10T00:51:57.345Z,0
2019-06-10T00:53:00.918Z,0
2019-06-10T00:54:03.379Z,0
2019-06-10T00:55:02.925Z,0
2019-06-10T00:56:04.867Z,0
2019-06-10T00:57:05.469Z,0
2019-06-10T00:58:05.774Z,0
2019-06-10T00:59:07.735Z,0
2019-06-10T01:00:17.026Z,0
2019-06-10T01:01:11.446Z,0
2019-06-10T01:02:12.478Z,0
2019-06-10T01:03:14.988Z,0
2019-06-10T01:04:16.169Z,0
2019-06-10T01:05:15.246Z,0
2019-06-10T01:06:16.105Z,0
2019-06-10T01:07:17.464Z,0
2019-06-10T01:08:21.242Z,0
2019-06-10T01:09:21.922Z,0
2019-06-10T01:10:21.499Z,0
2019-06-10T01:11:26.963Z,0
2019-06-10T01:12:24.269Z,0
2019-06-10T01:13:25.643Z,0
2019-06-10T01:14:27.009Z,0
2019-06-10T01:15:31.010Z,0
2019-06-10T01:16:31.643Z,0
2019-06-10T01:17:31.123Z,0
2019-06-10T01:18:38.142Z,0
2019-06-10T01:19:33.724Z,0
2019-06-10T01:20:35.090Z,0
2019-06-10T01:21:36.461Z,0
2019-06-10T01:22:37.827Z,0
2019-06-10T01:23:41.488Z,0
2019-06-10T01:24:40.759Z,0
2019-06-10T01:25:42.363Z,0
2019-06-10T01:26:43.207Z,0
2019-06-10T01:27:44.578Z,0
2019-06-10T01:28:45.948Z,0
2019-06-10T01:29:47.318Z,0
2019-06-10T01:30:48.684Z,0
2019-06-10T01:31:51.230Z,0
2019-06-10T01:32:51.390Z,0
2019-06-10T01:33:52.758Z,0
2019-06-10T01:34:54.128Z,0
2019-06-10T01:35:55.502Z,0
2019-06-10T01:36:56.870Z,0
2019-06-10T01:37:58.241Z,0
2019-06-10T01:39:01.398Z,0
2019-06-10T01:40:00.947Z,0
2019-06-10T01:41:02.313Z,0
2019-06-10T01:42:03.687Z,0
2019-06-10T01:43:06.109Z,0
2019-06-10T01:44:06.444Z,0
2019-06-10T01:45:08.502Z,0
2019-06-10T01:46:11.037Z,0
2019-06-10T01:47:11.821Z,0
2019-06-10T01:48:13.805Z,0
2019-06-10T01:49:14.532Z,0
2019-06-10T01:50:15.952Z,0
2019-06-10T01:51:15.966Z,0
2019-06-10T01:52:18.302Z,0
2019-06-10T01:53:18.855Z,0
2019-06-10T01:54:21.331Z,0
2019-06-10T01:55:21.868Z,0
2019-06-10T01:56:22.406Z,0
2019-06-10T01:57:23.779Z,0
2019-06-10T01:58:25.153Z,0
2019-06-10T01:59:26.519Z,0
2019-06-10T02:00:27.888Z,0
2019-06-10T02:01:30.675Z,0
2019-06-10T02:02:35.001Z,0
2019-06-10T02:03:31.936Z,0
2019-06-10T02:04:33.306Z,0
2019-06-10T02:05:34.671Z,0
2019-06-10T02:06:36.040Z,0
2019-06-10T02:07:37.409Z,0
2019-06-10T02:08:38.782Z,0
2019-06-10T02:09:41.095Z,0
2019-06-10T02:10:41.667Z,0
2019-06-10T02:11:42.817Z,0
2019-06-10T02:12:44.186Z,0
2019-06-10T02:13:45.558Z,0
2019-06-10T02:14:46.931Z,0
2019-06-10T02:15:48.293Z,0
2019-06-10T02:16:50.690Z,0
2019-06-10T02:17:51.093Z,0
2019-06-10T02:19:00.185Z,0
2019-06-10T02:19:53.663Z,0
2019-06-10T02:20:55.035Z,0
2019-06-10T02:21:56.408Z,0
2019-06-10T02:22:57.777Z,0
2019-06-10T02:24:00.886Z,0
2019-06-10T02:25:01.275Z,0
2019-06-10T02:26:02.013Z,0
2019-06-10T02:27:03.153Z,0
2019-06-10T02:28:04.523Z,0
2019-06-10T02:29:05.890Z,0
2019-06-10T02:30:14.786Z,0
2019-06-10T02:31:08.597Z,0
2019-06-10T02:32:13.259Z,0
2019-06-10T02:33:12.714Z,0
2019-06-10T02:34:17.038Z,0
2019-06-10T02:35:23.997Z,0
2019-06-10T02:36:18.176Z,0
2019-06-10T02:37:20.192Z,0
2019-06-10T02:38:24.680Z,0
2019-06-10T02:39:24.627Z,0
2019-06-10T02:40:28.243Z,0
2019-06-10T02:41:29.607Z,0
2019-06-10T02:42:30.248Z,0
2019-06-10T02:43:32.125Z,0
2019-06-10T02:44:32.470Z,0
2019-06-10T02:45:33.815Z,0
2019-06-10T02:46:31.546Z,0
2019-06-10T02:47:36.240Z,0
2019-06-10T02:48:34.527Z,0
2019-06-10T02:49:50.775Z,0
2019-06-10T02:50:36.364Z,0
2019-06-10T02:51:35.913Z,0
2019-06-10T02:52:38.381Z,0
2019-06-10T02:53:37.996Z,0
2019-06-10T02:54:39.367Z,0
2019-06-10T02:55:43.215Z,0
2019-06-10T02:56:44.304Z,0
2019-06-10T02:57:44.811Z,0
2019-06-10T02:58:45.210Z,0
2019-06-10T02:59:46.083Z,0
2019-06-10T03:00:48.761Z,0
2019-06-10T03:01:48.802Z,0
2019-06-10T03:02:52.917Z,0
2019-06-10T03:03:54.124Z,0
2019-06-10T03:04:53.620Z,0
2019-06-10T03:05:54.233Z,0
2019-06-10T03:06:55.545Z,0
2019-06-10T03:07:56.918Z,0
2019-06-10T03:08:58.289Z,0
2019-06-10T03:09:59.660Z,0
2019-06-10T03:11:03.646Z,0
2019-06-10T03:12:04.554Z,0
2019-06-10T03:13:03.701Z,5
2019-06-10T03:14:05.073Z,5
2019-06-10T03:15:06.449Z,5
2019-06-10T03:16:07.852Z,5
2019-06-10T03:17:09.217Z,5
2019-06-10T03:18:12.817Z,5
2019-06-10T03:19:13.317Z,5
2019-06-10T03:20:13.258Z,5
2019-06-10T03:21:15.873Z,10
2019-06-10T03:22:16.012Z,10
2019-06-10T03:23:17.946Z,10
2019-06-10T03:24:19.134Z,10
2019-06-10T03:25:20.916Z,10
2019-06-10T03:26:23.913Z,10
2019-06-10T03:27:23.564Z,10
2019-06-10T03:28:25.240Z,10
2019-06-10T03:29:26.524Z,10
2019-06-10T03:30:41.172Z,10
2019-06-10T03:31:35.768Z,10
2019-06-10T03:32:35.290Z,15
2019-06-10T03:33:40.443Z,15
2019-06-10T03:34:41.311Z,15
2019-06-10T03:35:33.423Z,15
2019-06-10T03:36:34.798Z,15
2019-06-10T03:37:36.174Z,15
2019-06-10T03:38:37.548Z,15
2019-06-10T03:39:38.917Z,15
2019-06-10T03:40:40.289Z,15
2019-06-10T03:41:42.366Z,15
2019-06-10T03:42:43.001Z,15
2019-06-10T03:43:44.374Z,15
2019-06-10T03:44:45.766Z,15
2019-06-10T03:45:47.121Z,15
2019-06-10T03:46:48.496Z,15
2019-06-10T03:47:49.872Z,15
2019-06-10T03:48:52.597Z,15
2019-06-10T03:49:55.502Z,15
2019-06-10T03:50:53.918Z,15
2019-06-10T03:51:55.293Z,15
2019-06-10T03:52:56.662Z,15
2019-06-10T03:53:58.037Z,15
2019-06-10T03:54:59.412Z,20
2019-06-10T03:56:02.262Z,20
2019-06-10T03:57:02.823Z,20
2019-06-10T03:58:03.461Z,25
2019-06-10T03:59:04.834Z,25
2019-06-10T04:00:10.340Z,30
2019-06-10T04:01:07.548Z,30
2019-06-10T04:02:08.917Z,30
2019-06-10T04:03:11.991Z,35
2019-06-10T04:04:13.138Z,35
2019-06-10T04:05:13.323Z,40
2019-06-10T04:06:14.301Z,40
2019-06-10T04:07:15.673Z,40
2019-06-10T04:08:17.450Z,45
2019-06-10T04:09:19.451Z,45
2019-06-10T04:10:19.728Z,45
2019-06-10T04:11:23.978Z,50
2019-06-10T04:12:24.273Z,55
2019-06-10T04:13:25.406Z,60
2019-06-10T04:14:26.693Z,65
2019-06-10T04:15:28.296Z,75
2019-06-10T04:16:28.334Z,75
2019-06-10T04:17:29.133Z,75
2019-06-10T04:18:32.490Z,75
2019-06-10T04:19:32.709Z,80
2019-06-10T04:20:33.241Z,80
2019-06-10T04:21:34.555Z,80
2019-06-10T04:22:35.928Z,75
2019-06-10T04:23:37.302Z,75
2019-06-10T04:24:38.679Z,80
2019-06-10T04:25:42.598Z,80
2019-06-10T04:26:43.277Z,80
2019-06-10T04:27:42.730Z,80
2019-06-10T04:28:44.101Z,80
2019-06-10T04:29:45.476Z,80
2019-06-10T04:30:46.851Z,85
2019-06-10T04:31:48.224Z,85
2019-06-10T04:32:49.597Z,80
2019-06-10T04:33:52.330Z,80
2019-06-10T04:34:52.954Z,80
2019-06-10T04:35:53.651Z,80
2019-06-10T04:36:55.021Z,80
2019-06-10T04:37:56.451Z,80
2019-06-10T04:38:57.773Z,80
2019-06-10T04:39:59.151Z,80
2019-06-10T04:41:03.061Z,80
2019-06-10T04:42:02.454Z,85
2019-06-10T04:43:03.204Z,90
2019-06-10T04:44:04.578Z,95
2019-06-10T04:45:05.951Z,95
2019-06-10T04:46:07.329Z,105
2019-06-10T04:47:08.703Z,110
2019-06-10T04:48:12.291Z,130
2019-06-10T04:49:13.188Z,135
2019-06-10T04:50:23.997Z,145
2019-06-10T04:51:14.096Z,155
2019-06-10T04:52:15.472Z,155
2019-06-10T04:53:16.847Z,160
2019-06-10T04:54:18.685Z,160
2019-06-10T04:55:21.216Z,160
2019-06-10T04:56:22.907Z,160
2019-06-10T04:57:23.807Z,160
2019-06-10T04:58:24.406Z,160
2019-06-10T04:59:27.603Z,165
2019-06-10T05:00:27.570Z,175
2019-06-10T05:01:28.596Z,175
2019-06-10T05:02:29.843Z,180
2019-06-10T05:03:32.634Z,175
2019-06-10T05:04:32.892Z,170
2019-06-10T05:05:33.019Z,165
2019-06-10T05:06:34.337Z,165
2019-06-10T05:07:37.011Z,165
2019-06-10T05:08:37.047Z,165
2019-06-10T05:09:38.429Z,170
2019-06-10T05:10:39.805Z,170
2019-06-10T05:11:42.983Z,180
2019-06-10T05:12:43.294Z,190
2019-06-10T05:13:43.829Z,215
2019-06-10T05:14:45.204Z,230
2019-06-10T05:15:46.580Z,240
2019-06-10T05:16:47.961Z,235
2019-06-10T05:17:49.345Z,225
2019-06-10T05:18:54.042Z,220
2019-06-10T05:19:53.053Z,210
2019-06-10T05:20:58.375Z,215
2019-06-10T05:21:54.740Z,225
2019-06-10T05:22:56.121Z,230
2019-06-10T05:23:57.494Z,245
2019-06-10T05:24:58.870Z,265
2019-06-10T05:26:02.458Z,275
2019-06-10T05:27:02.090Z,270
2019-06-10T05:28:02.999Z,255
2019-06-10T05:29:04.298Z,230
2019-06-10T05:30:05.674Z,205
2019-06-10T05:31:07.052Z,205
2019-06-10T05:32:08.428Z,215
2019-06-10T05:33:09.815Z,230
2019-06-10T05:34:12.862Z,235
2019-06-10T05:35:12.565Z,245
2019-06-10T05:36:13.903Z,260
2019-06-10T05:37:15.288Z,270
2019-06-10T05:38:16.655Z,280
2019-06-10T05:39:18.036Z,280
2019-06-10T05:40:19.412Z,275
2019-06-10T05:41:24.198Z,260
2019-06-10T05:42:24.588Z,260
2019-06-10T05:43:24.752Z,270
2019-06-10T05:44:25.773Z,285
2019-06-10T05:45:27.473Z,300
2019-06-10T05:46:28.617Z,305
2019-06-10T05:47:29.836Z,305
2019-06-10T05:48:30.378Z,285
2019-06-10T05:49:35.643Z,275
2019-06-10T05:50:33.589Z,250
2019-06-10T05:51:35.280Z,250
2019-06-10T05:52:35.535Z,250
2019-06-10T05:53:36.914Z,275
2019-06-10T05:54:38.288Z,300
2019-06-10T05:55:39.663Z,320
2019-06-10T05:56:43.019Z,335
2019-06-10T05:57:42.845Z,395
2019-06-10T05:58:43.861Z,460
2019-06-10T05:59:45.066Z,475
2019-06-10T06:00:46.446Z,375
2019-06-10T06:01:47.841Z,395
2019-06-10T06:02:49.221Z,370
2019-06-10T06:03:52.650Z,380
2019-06-10T06:04:53.058Z,305
2019-06-10T06:05:53.280Z,300
2019-06-10T06:06:54.658Z,330
2019-06-10T06:08:04.941Z,345
2019-06-10T06:08:57.380Z,340
2019-06-10T06:09:58.762Z,345
2019-06-10T06:11:00.141Z,350
2019-06-10T06:12:02.548Z,365
2019-06-10T06:13:03.065Z,350
2019-06-10T06:14:04.203Z,350
2019-06-10T06:15:05.582Z,400
2019-06-10T06:16:06.959Z,415
2019-06-10T06:17:08.337Z,400
2019-06-10T06:18:10.753Z,385
2019-06-10T06:19:12.559Z,375
2019-06-10T06:20:13.310Z,360
2019-06-10T06:21:25.361Z,360
2019-06-10T06:22:15.105Z,335
2019-06-10T06:23:16.480Z,345
2019-06-10T06:24:17.866Z,375
2019-06-10T06:25:19.243Z,385
2019-06-10T06:26:23.252Z,415
2019-06-10T06:27:22.529Z,465
2019-06-10T06:28:23.311Z,430
2019-06-10T06:29:24.695Z,440
2019-06-10T06:30:26.158Z,450
2019-06-10T06:31:28.089Z,465
2019-06-10T06:32:28.796Z,445
2019-06-10T06:33:32.760Z,460
2019-06-10T06:34:33.673Z,470
2019-06-10T06:35:35.143Z,475
2019-06-10T06:36:36.606Z,475
2019-06-10T06:37:37.698Z,475
2019-06-10T06:38:38.369Z,480
2019-06-10T06:39:38.358Z,485
2019-06-10T06:40:39.590Z,495
2019-06-10T06:41:42.758Z,505
2019-06-10T06:42:43.305Z,500
2019-06-10T06:43:45.360Z,510
2019-06-10T06:44:45.080Z,505
2019-06-10T06:45:46.489Z,505
2019-06-10T06:46:47.868Z,515
2019-06-10T06:47:49.251Z,525
2019-06-10T06:48:52.991Z,530
2019-06-10T06:49:53.164Z,540
2019-06-10T06:51:04.591Z,535
2019-06-10T06:51:59.008Z,530
2019-06-10T06:53:23.401Z,515
2019-06-10T06:53:57.384Z,500
2019-06-10T06:54:58.767Z,490
2019-06-10T06:56:00.150Z,495
2019-06-10T06:57:03.450Z,505
2019-06-10T06:58:03.348Z,515
2019-06-10T06:59:04.232Z,515
2019-06-10T07:00:34.081Z,505
2019-06-10T07:01:11.000Z,505
2019-06-10T07:02:08.339Z,515
2019-06-10T07:03:09.723Z,535
2019-06-10T07:04:12.846Z,530
2019-06-10T07:05:12.538Z,535
2019-06-10T07:06:13.799Z,540
2019-06-10T07:07:15.176Z,595
2019-06-10T07:08:16.552Z,570
2019-06-10T07:09:17.935Z,615
2019-06-10T07:10:19.314Z,685
2019-06-10T07:11:22.361Z,655
2019-06-10T07:12:23.016Z,585
2019-06-10T07:13:23.388Z,585
2019-06-10T07:14:24.773Z,615
2019-06-10T07:15:26.151Z,630
2019-06-10T07:16:27.530Z,700
2019-06-10T07:17:28.913Z,675
2019-06-10T07:18:32.682Z,655
2019-06-10T07:19:34.424Z,670
2019-06-10T07:20:36.230Z,685
2019-06-10T07:21:40.404Z,690
2019-06-10T07:22:37.001Z,715
2019-06-10T07:23:39.509Z,765
2019-06-10T07:24:40.683Z,780
2019-06-10T07:25:42.256Z,790
2019-06-10T07:26:49.380Z,580
2019-06-10T07:27:45.135Z,575
2019-06-10T07:28:46.747Z,545
2019-06-10T07:29:47.197Z,650
2019-06-10T07:30:51.173Z,630
2019-06-10T07:31:50.273Z,605
2019-06-10T07:32:49.166Z,615
2019-06-10T07:33:52.363Z,770
2019-06-10T07:34:52.470Z,680
2019-06-10T07:35:56.349Z,725
2019-06-10T07:36:54.605Z,745
2019-06-10T07:37:55.990Z,690
2019-06-10T07:38:57.372Z,665
2019-06-10T07:39:58.761Z,690
2019-06-10T07:41:02.388Z,650
2019-06-10T07:42:03.118Z,620
2019-06-10T07:43:02.848Z,625
2019-06-10T07:44:04.233Z,625
2019-06-10T07:45:05.615Z,625
2019-06-10T07:46:07.002Z,700
2019-06-10T07:47:08.395Z,755
2019-06-10T07:48:12.041Z,790
2019-06-10T07:49:13.245Z,845
2019-06-10T07:50:12.479Z,860
2019-06-10T07:51:13.855Z,870
2019-06-10T07:52:19.457Z,870
2019-06-10T07:53:16.588Z,870
2019-06-10T07:54:17.978Z,830
2019-06-10T07:55:19.364Z,785
2019-06-10T07:56:23.000Z,740
2019-06-10T07:57:22.623Z,710
2019-06-10T07:58:23.444Z,700
2019-06-10T07:59:24.835Z,670
2019-06-10T08:00:26.218Z,660
2019-06-10T08:01:27.612Z,670
2019-06-10T08:02:29.003Z,675
2019-06-10T08:03:32.598Z,670
2019-06-10T08:04:33.565Z,670
2019-06-10T08:05:34.104Z,670
2019-06-10T08:06:35.148Z,675
2019-06-10T08:07:36.713Z,650
2019-06-10T08:08:37.131Z,640
2019-06-10T08:09:39.061Z,630
2019-06-10T08:10:42.774Z,645
2019-06-10T08:11:43.955Z,630
2019-06-10T08:12:44.769Z,630
2019-06-10T08:13:46.156Z,605
2019-06-10T08:14:45.785Z,630
2019-06-10T08:15:48.216Z,650
2019-06-10T08:16:48.646Z,690
2019-06-10T08:17:49.357Z,655
2019-06-10T08:19:16.183Z,600
2019-06-10T08:19:54.131Z,615
2019-06-10T08:20:53.447Z,590
2019-06-10T08:21:54.968Z,755
2019-06-10T08:22:57.860Z,790
2019-06-10T08:23:57.703Z,840
2019-06-10T08:24:59.086Z,910
2019-06-10T08:26:03.155Z,870
2019-06-10T08:27:02.658Z,940
2019-06-10T08:28:03.202Z,920
2019-06-10T08:29:04.624Z,890
2019-06-10T08:30:18.521Z,855
2019-06-10T08:31:07.311Z,855
2019-06-10T08:32:08.695Z,870
2019-06-10T08:33:10.079Z,890
2019-06-10T08:34:13.371Z,900
2019-06-10T08:35:12.922Z,930
2019-06-10T08:36:14.168Z,905
2019-06-10T08:37:15.550Z,865
2019-06-10T08:38:16.988Z,835
2019-06-10T08:39:18.371Z,825
2019-06-10T08:40:19.906Z,815
2019-06-10T08:41:23.166Z,840
2019-06-10T08:42:23.304Z,860
2019-06-10T08:43:24.028Z,875
2019-06-10T08:44:25.417Z,885
2019-06-10T08:45:26.803Z,890
2019-06-10T08:46:28.187Z,895
2019-06-10T08:47:29.571Z,875
2019-06-10T08:48:32.728Z,810
2019-06-10T08:49:32.770Z,840
2019-06-10T08:50:33.896Z,840
2019-06-10T08:51:35.009Z,835
2019-06-10T08:52:51.681Z,830
2019-06-10T08:53:37.746Z,800
2019-06-10T08:54:40.651Z,820
2019-06-10T08:55:42.874Z,840
2019-06-10T08:56:45.196Z,880
2019-06-10T08:57:46.853Z,955
2019-06-10T08:58:46.325Z,875
2019-06-10T08:59:47.475Z,900
2019-06-10T09:00:49.341Z,885
2019-06-10T09:01:52.404Z,930
2019-06-10T09:02:53.653Z,930
2019-06-10T09:03:53.776Z,915
2019-06-10T09:05:49.872Z,865
2019-06-10T09:06:50.704Z,850
2019-06-10T09:08:23.413Z,845
2019-06-10T09:09:22.971Z,845
2019-06-10T09:10:24.355Z,855
2019-06-10T09:11:25.782Z,800
2019-06-10T09:12:32.488Z,745
2019-06-10T09:13:28.667Z,750
2019-06-10T09:14:32.439Z,780
2019-06-10T09:15:32.519Z,780
2019-06-10T09:16:33.022Z,940
2019-06-10T09:17:34.147Z,900
2019-06-10T09:18:35.531Z,925
2019-06-10T09:19:36.915Z,885
2019-06-10T09:20:39.383Z,905
2019-06-10T09:21:42.046Z,790
2019-06-10T09:22:42.276Z,1050
2019-06-10T09:23:46.446Z,1085
2019-06-10T09:24:47.637Z,1175
2019-06-10T09:25:48.863Z,1095
2019-06-10T09:26:48.642Z,835
2019-06-10T09:27:49.649Z,850
2019-06-10T09:28:52.658Z,760
2019-06-10T09:29:54.896Z,745
2019-06-10T09:30:58.332Z,845
2019-06-10T09:31:55.858Z,1300
2019-06-10T09:32:56.811Z,1380
2019-06-10T09:33:57.252Z,1615
2019-06-10T09:34:58.677Z,1700
2019-06-10T09:36:00.132Z,1825
2019-06-10T09:37:03.538Z,1730
2019-06-10T09:38:03.737Z,1585
2019-06-10T09:39:04.444Z,1915
2019-06-10T09:40:05.814Z,1960
2019-06-10T09:41:07.206Z,1985
2019-06-10T09:42:08.690Z,2030
2019-06-10T09:43:10.031Z,2120
2019-06-10T09:44:12.897Z,2205
2019-06-10T09:45:12.992Z,2160
2019-06-10T09:46:14.127Z,2210
2019-06-10T09:47:15.547Z,2190
2019-06-10T09:48:16.939Z,1940
2019-06-10T09:49:18.329Z,1800
2019-06-10T09:50:19.723Z,1895
2019-06-10T09:51:22.984Z,1470
2019-06-10T09:52:23.940Z,1440
2019-06-10T09:53:33.394Z,1375
2019-06-10T09:54:25.174Z,1270
2019-06-10T09:55:26.564Z,1275
2019-06-10T09:56:27.954Z,1280
2019-06-10T09:57:29.354Z,1315
2019-06-10T09:58:32.699Z,1505
2019-06-10T09:59:32.283Z,1470
2019-06-10T10:00:33.447Z,1425
2019-06-10T10:01:34.835Z,1670
2019-06-10T10:02:36.224Z,1865
2019-06-10T10:03:37.618Z,1835
2019-06-10T10:04:39.009Z,1565
2019-06-10T10:05:46.276Z,2120
2019-06-10T10:06:44.816Z,2040
2019-06-10T10:07:46.995Z,2010
2019-06-10T10:08:46.147Z,2010
2019-06-10T10:09:48.311Z,3170
2019-06-10T10:10:50.153Z,4125
2019-06-10T10:11:49.285Z,4195
2019-06-10T10:12:51.233Z,3760
2019-06-10T10:13:52.638Z,3450
2019-06-10T10:14:55.971Z,3645
2019-06-10T10:15:54.380Z,4065
2019-06-10T10:16:59.902Z,4070
2019-06-10T10:17:56.649Z,3855
2019-06-10T10:19:00.683Z,3320
2019-06-10T10:19:59.392Z,3330
2019-06-10T10:21:03.573Z,4105
2019-06-10T10:22:03.011Z,3225
2019-06-10T10:23:03.498Z,4180
2019-06-10T10:24:10.492Z,4060
2019-06-10T10:25:06.254Z,3165
2019-06-10T10:26:07.642Z,3570
2019-06-10T10:27:10.231Z,3915
2019-06-10T10:28:10.392Z,3575
2019-06-10T10:29:13.103Z,4140
2019-06-10T10:30:13.539Z,4245
2019-06-10T10:31:14.491Z,4140
2019-06-10T10:32:15.887Z,4310
2019-06-10T10:33:17.298Z,4355
2019-06-10T10:34:18.677Z,4335
2019-06-10T10:35:20.069Z,4260
2019-06-10T10:36:22.598Z,4195
2019-06-10T10:37:22.941Z,4120
2019-06-10T10:38:24.175Z,4205
2019-06-10T10:39:25.567Z,4105
2019-06-10T10:40:26.961Z,3875
2019-06-10T10:41:28.356Z,3960
2019-06-10T10:42:42.736Z,4380
2019-06-10T10:43:34.197Z,4425
2019-06-10T10:44:32.456Z,4155
2019-06-10T10:45:33.808Z,4475
2019-06-10T10:46:35.199Z,4610
2019-06-10T10:47:36.596Z,4210
2019-06-10T10:48:37.991Z,4070
2019-06-10T10:49:39.381Z,4555
2019-06-10T10:50:40.776Z,4620
2019-06-10T10:51:42.802Z,4420
2019-06-10T10:52:45.184Z,4750
2019-06-10T10:53:48.542Z,4740
2019-06-10T10:54:46.772Z,4750
2019-06-10T10:55:47.779Z,4750
2019-06-10T10:56:49.639Z,4665
2019-06-10T10:57:52.847Z,4595
2019-06-10T10:58:55.644Z,4740
2019-06-10T10:59:55.922Z,4485
2019-06-10T11:00:57.572Z,3770
2019-06-10T11:01:55.940Z,4150
2019-06-10T11:02:57.337Z,4640
2019-06-10T11:03:59.436Z,4625
2019-06-10T11:05:00.344Z,4785
2019-06-10T11:06:01.803Z,4605
2019-06-10T11:07:03.124Z,4525
2019-06-10T11:08:04.517Z,990
2019-06-10T11:09:05.914Z,1555
2019-06-10T11:10:07.316Z,4665
2019-06-10T11:11:08.705Z,4795
2019-06-10T11:12:10.101Z,4765
2019-06-10T11:13:11.497Z,2515
2019-06-10T11:14:15.015Z,4500
2019-06-10T11:15:14.261Z,1050
2019-06-10T11:16:15.690Z,1190
2019-06-10T11:17:17.080Z,2890
2019-06-10T11:18:18.653Z,4450
2019-06-10T11:19:22.121Z,1410
2019-06-10T11:20:22.522Z,3335
2019-06-10T11:21:22.838Z,4015
2019-06-10T11:22:23.906Z,4885
2019-06-10T11:23:25.302Z,4785
2019-06-10T11:24:36.789Z,3020
2019-06-10T11:25:28.052Z,4030
2019-06-10T11:26:29.443Z,1200
2019-06-10T11:27:33.004Z,950
2019-06-10T11:28:32.342Z,740
2019-06-10T11:29:33.550Z,660
2019-06-10T11:30:34.944Z,635
2019-06-10T11:31:36.334Z,605
2019-06-10T11:32:38.096Z,540
2019-06-10T11:33:39.087Z,510
2019-06-10T11:34:42.739Z,470
2019-06-10T11:35:42.788Z,445
2019-06-10T11:36:43.184Z,440
2019-06-10T11:37:44.574Z,450
2019-06-10T11:38:46.253Z,465
2019-06-10T11:39:48.052Z,495
2019-06-10T11:40:49.838Z,595
2019-06-10T11:41:50.901Z,720
2019-06-10T11:42:54.207Z,855
2019-06-10T11:43:55.035Z,920
2019-06-10T11:44:57.313Z,1025
2019-06-10T11:46:03.007Z,1075
2019-06-10T11:46:58.101Z,1185
2019-06-10T11:47:58.297Z,3470
2019-06-10T11:48:59.518Z,1200
2019-06-10T11:50:02.828Z,1155
2019-06-10T11:51:04.620Z,1115
2019-06-10T11:52:03.638Z,1765
2019-06-10T11:53:05.031Z,3270
2019-06-10T11:54:06.417Z,1345
2019-06-10T11:55:15.291Z,1075
2019-06-10T11:56:09.168Z,945
2019-06-10T11:57:12.365Z,935
2019-06-10T11:58:11.917Z,955
2019-06-10T11:59:13.598Z,945
2019-06-10T12:00:17.319Z,1005
2019-06-10T12:01:16.005Z,990
2019-06-10T12:02:17.392Z,1065
2019-06-10T12:03:18.780Z,1180
2019-06-10T12:04:20.170Z,1080
2019-06-10T12:05:23.397Z,930
2019-06-10T12:06:23.036Z,840
2019-06-10T12:07:24.256Z,790
2019-06-10T12:08:25.641Z,730
2019-06-10T12:09:27.028Z,660
2019-06-10T12:10:28.428Z,615
2019-06-10T12:11:29.806Z,595
2019-06-10T12:12:33.519Z,570
2019-06-10T12:13:34.199Z,535
2019-06-10T12:14:34.004Z,490
2019-06-10T12:16:09.671Z,430
2019-06-10T12:17:17.718Z,405
2019-06-10T12:17:47.099Z,410
2019-06-10T12:18:39.302Z,440
2019-06-10T12:19:43.186Z,500
2019-06-10T12:20:42.665Z,785
2019-06-10T12:21:43.647Z,530
2019-06-10T12:22:44.736Z,500
2019-06-10T12:23:46.121Z,545
2019-06-10T12:24:47.505Z,615
2019-06-10T12:25:49.618Z,580
2019-06-10T12:26:50.238Z,555
2019-06-10T12:27:55.058Z,500
2019-06-10T12:28:54.607Z,415
2019-06-10T12:29:56.276Z,375
2019-06-10T12:30:59.286Z,385
2019-06-10T12:32:00.108Z,425
2019-06-10T12:33:00.434Z,490
2019-06-10T12:34:02.254Z,575
2019-06-10T12:35:05.000Z,660
2019-06-10T12:36:06.178Z,735
2019-06-10T12:37:10.733Z,785
2019-06-10T12:38:06.295Z,775
2019-06-10T12:39:10.542Z,785
2019-06-10T12:40:07.979Z,870
2019-06-10T12:41:10.543Z,910
2019-06-10T12:42:13.489Z,900
2019-06-10T12:43:12.673Z,920
2019-06-10T12:44:13.379Z,945
2019-06-10T12:45:14.760Z,975
2019-06-10T12:46:16.152Z,1035
2019-06-10T12:47:17.539Z,1440
2019-06-10T12:48:18.932Z,1535
2019-06-10T12:49:20.310Z,1920
2019-06-10T12:50:21.713Z,1185
2019-06-10T12:51:23.104Z,1495
2019-06-10T12:52:24.493Z,1855
2019-06-10T12:53:25.882Z,1805
2019-06-10T12:54:27.293Z,1915
2019-06-10T12:55:42.150Z,2055
2019-06-10T12:56:30.004Z,1625
2019-06-10T12:57:32.529Z,2425
2019-06-10T12:58:33.452Z,2285
2019-06-10T12:59:34.091Z,1915
2019-06-10T13:00:35.472Z,1495
2019-06-10T13:01:36.864Z,1370
2019-06-10T13:02:38.281Z,1430
2019-06-10T13:03:39.644Z,1310
2019-06-10T13:04:42.947Z,1200
2019-06-10T13:05:42.697Z,1110
2019-06-10T13:06:43.751Z,1070
2019-06-10T13:07:45.142Z,1045
2019-06-10T13:08:46.561Z,1030
2019-06-10T13:09:47.947Z,980
2019-06-10T13:10:49.334Z,940
2019-06-10T13:11:52.593Z,910
2019-06-10T13:12:53.096Z,910
2019-06-10T13:13:53.422Z,925
2019-06-10T13:14:56.233Z,965
2019-06-10T13:15:56.322Z,1010
2019-06-10T13:16:57.929Z,1030
2019-06-10T13:18:00.202Z,1135
2019-06-10T13:19:00.234Z,1515
2019-06-10T13:20:04.376Z,1665
2019-06-10T13:21:09.969Z,1255
2019-06-10T13:22:05.710Z,2345
2019-06-10T13:23:17.240Z,2915
2019-06-10T13:24:07.812Z,2245
2019-06-10T13:25:08.372Z,965
2019-06-10T13:26:13.146Z,755
2019-06-10T13:27:11.109Z,670
2019-06-10T13:28:12.495Z,590
2019-06-10T13:29:17.385Z,505
2019-06-10T13:30:15.230Z,430
2019-06-10T13:31:16.613Z,380
2019-06-10T13:32:18.004Z,340
2019-06-10T13:33:19.393Z,320
2019-06-10T13:34:22.145Z,290
2019-06-10T13:35:23.030Z,275
2019-06-10T13:36:25.987Z,265
2019-06-10T13:37:24.846Z,250
2019-06-10T13:38:26.238Z,245
2019-06-10T13:39:27.842Z,235
2019-06-10T13:40:28.967Z,230
2019-06-10T13:41:30.357Z,215
2019-06-10T13:42:33.941Z,210
2019-06-10T13:43:33.926Z,205
2019-06-10T13:44:34.431Z,210
2019-06-10T13:45:35.816Z,220
2019-06-10T13:46:37.202Z,235
2019-06-10T13:47:38.588Z,260
2019-06-10T13:48:39.975Z,280
2019-06-10T13:49:42.863Z,315
2019-06-10T13:50:43.126Z,390
2019-06-10T13:51:44.207Z,445
2019-06-10T13:52:45.411Z,520
2019-06-10T13:53:46.804Z,565
2019-06-10T13:54:48.185Z,655
2019-06-10T13:55:52.674Z,735
2019-06-10T13:56:52.347Z,820
2019-06-10T13:57:53.218Z,870
2019-06-10T13:58:53.609Z,840
2019-06-10T13:59:54.992Z,820
2019-06-10T14:00:56.380Z,810
2019-06-10T14:01:57.762Z,835
2019-06-10T14:02:59.930Z,875
2019-06-10T14:04:03.089Z,880
2019-06-10T14:05:03.554Z,890
2019-06-10T14:06:18.248Z,905
2019-06-10T14:07:07.423Z,920
2019-06-10T14:08:08.677Z,910
2019-06-10T14:09:08.405Z,910
2019-06-10T14:10:12.956Z,940
2019-06-10T14:11:09.951Z,985
2019-06-10T14:12:16.632Z,1015
2019-06-10T14:13:15.388Z,1025
2019-06-10T14:14:17.591Z,1050
2019-06-10T14:15:16.987Z,1070
2019-06-10T14:16:16.756Z,1070
2019-06-10T14:17:19.539Z,1055